sensor_id;sensor_type;location;lat;lon;timestamp;temperature;humidity
34698;DHT22;61391;50.922;6.928;2022-09-16T00:00:35;16.30;99.90
34698;DHT22;61391;50.922;6.928;2022-09-16T00:03:01;16.20;99.90
34698;DHT22;61391;50.922;6.928;2022-09-16T00:05:27;16.10;99.90
34698;DHT22;61391;50.922;6.928;2022-09-16T00:07:53;16.00;99.90
34698;DHT22;61391;50.922;6.928;2022-09-16T00:10:20;16.10;99.90
34698;DHT22;61391;50.922;6.928;2022-09-16T00:12:46;16.30;99.90
34698;DHT22;61391;50.922;6.928;2022-09-16T00:15:12;16.40;99.90
34698;DHT22;61391;50.922;6.928;2022-09-16T00:17:37;16.40;99.90
34698;DHT22;61391;50.922;6.928;2022-09-16T00:20:04;16.40;99.90
34698;DHT22;61391;50.922;6.928;2022-09-16T00:22:30;16.50;99.90
34698;DHT22;61391;50.922;6.928;2022-09-16T00:24:56;16.50;99.90
34698;DHT22;61391;50.922;6.928;2022-09-16T00:27:21;16.40;99.90
34698;DHT22;61391;50.922;6.928;2022-09-16T00:29:47;16.20;99.90
34698;DHT22;61391;50.922;6.928;2022-09-16T00:32:12;16.10;99.90
34698;DHT22;61391;50.922;6.928;2022-09-16T00:34:38;16.20;99.90
34698;DHT22;61391;50.922;6.928;2022-09-16T00:37:04;16.20;99.90
34698;DHT22;61391;50.922;6.928;2022-09-16T00:39:33;16.00;99.90
34698;DHT22;61391;50.922;6.928;2022-09-16T00:41:59;16.00;99.90
34698;DHT22;61391;50.922;6.928;2022-09-16T00:45:00;15.80;99.90
34698;DHT22;61391;50.922;6.928;2022-09-16T00:47:36;15.80;99.90
34698;DHT22;61391;50.922;6.928;2022-09-16T00:52:36;15.70;99.90
34698;DHT22;61391;50.922;6.928;2022-09-16T00:55:29;15.70;99.90
34698;DHT22;61391;50.922;6.928;2022-09-16T00:58:03;15.70;99.90
34698;DHT22;61391;50.922;6.928;2022-09-16T01:00:30;15.50;99.90
34698;DHT22;61391;50.922;6.928;2022-09-16T01:02:56;15.60;99.90
34698;DHT22;61391;50.922;6.928;2022-09-16T01:05:23;15.50;99.90
34698;DHT22;61391;50.922;6.928;2022-09-16T01:07:52;15.70;99.90
34698;DHT22;61391;50.922;6.928;2022-09-16T01:10:23;15.70;99.90
34698;DHT22;61391;50.922;6.928;2022-09-16T01:12:53;15.70;99.90
34698;DHT22;61391;50.922;6.928;2022-09-16T01:15:36;15.70;99.90
34698;DHT22;61391;50.922;6.928;2022-09-16T01:18:09;15.70;99.90
34698;DHT22;61391;50.922;6.928;2022-09-16T01:32:05;15.40;99.90
34698;DHT22;61391;50.922;6.928;2022-09-16T01:42:57;15.50;99.90
34698;DHT22;61391;50.922;6.928;2022-09-16T01:45:36;15.60;99.90
34698;DHT22;61391;50.922;6.928;2022-09-16T01:50:43;15.40;99.90
34698;DHT22;61391;50.922;6.928;2022-09-16T01:59:24;15.70;99.90
34698;DHT22;61391;50.922;6.928;2022-09-16T02:01:55;15.60;99.90
34698;DHT22;61391;50.922;6.928;2022-09-16T02:04:32;15.50;99.90
34698;DHT22;61391;50.922;6.928;2022-09-16T02:07:00;15.60;99.90
34698;DHT22;61391;50.922;6.928;2022-09-16T02:09:32;15.60;99.90
34698;DHT22;61391;50.922;6.928;2022-09-16T02:12:03;15.60;99.90
34698;DHT22;61391;50.922;6.928;2022-09-16T02:14:36;15.70;99.90
34698;DHT22;61391;50.922;6.928;2022-09-16T02:17:07;15.70;99.90
34698;DHT22;61391;50.922;6.928;2022-09-16T02:19:39;15.80;99.90
34698;DHT22;61391;50.922;6.928;2022-09-16T02:22:17;15.60;99.90
34698;DHT22;61391;50.922;6.928;2022-09-16T02:24:46;15.90;99.90
34698;DHT22;61391;50.922;6.928;2022-09-16T02:27:15;15.60;99.90
34698;DHT22;61391;50.922;6.928;2022-09-16T02:29:50;15.60;99.90
34698;DHT22;61391;50.922;6.928;2022-09-16T02:32:18;15.50;99.90
34698;DHT22;61391;50.922;6.928;2022-09-16T02:34:49;15.60;99.90
34698;DHT22;61391;50.922;6.928;2022-09-16T02:37:28;15.50;99.90
34698;DHT22;61391;50.922;6.928;2022-09-16T02:40:28;15.50;99.90
34698;DHT22;61391;50.922;6.928;2022-09-16T02:42:57;15.50;99.90
34698;DHT22;61391;50.922;6.928;2022-09-16T02:45:33;15.40;99.90
34698;DHT22;61391;50.922;6.928;2022-09-16T02:48:12;15.50;99.90
34698;DHT22;61391;50.922;6.928;2022-09-16T02:53:46;15.50;99.90
34698;DHT22;61391;50.922;6.928;2022-09-16T02:56:29;15.60;99.90
34698;DHT22;61391;50.922;6.928;2022-09-16T02:59:00;15.80;99.90
34698;DHT22;61391;50.922;6.928;2022-09-16T03:01:29;15.80;99.90
34698;DHT22;61391;50.922;6.928;2022-09-16T03:03:54;15.90;99.90
34698;DHT22;61391;50.922;6.928;2022-09-16T03:06:23;15.90;99.90
34698;DHT22;61391;50.922;6.928;2022-09-16T03:08:50;16.00;99.90
34698;DHT22;61391;50.922;6.928;2022-09-16T03:22:08;15.60;99.90
34698;DHT22;61391;50.922;6.928;2022-09-16T03:25:03;15.50;99.90
34698;DHT22;61391;50.922;6.928;2022-09-16T03:27:36;15.20;99.90
34698;DHT22;61391;50.922;6.928;2022-09-16T03:30:07;15.10;99.90
34698;DHT22;61391;50.922;6.928;2022-09-16T03:32:37;15.10;99.90
34698;DHT22;61391;50.922;6.928;2022-09-16T03:35:13;15.00;99.90
34698;DHT22;61391;50.922;6.928;2022-09-16T03:37:41;15.00;99.90
34698;DHT22;61391;50.922;6.928;2022-09-16T03:40:14;15.00;99.90
34698;DHT22;61391;50.922;6.928;2022-09-16T03:42:41;15.10;99.90
34698;DHT22;61391;50.922;6.928;2022-09-16T03:45:13;15.20;99.90
34698;DHT22;61391;50.922;6.928;2022-09-16T03:47:39;15.30;99.90
34698;DHT22;61391;50.922;6.928;2022-09-16T03:53:27;15.40;99.90
34698;DHT22;61391;50.922;6.928;2022-09-16T03:55:52;15.40;99.90
34698;DHT22;61391;50.922;6.928;2022-09-16T03:58:18;15.30;99.90
34698;DHT22;61391;50.922;6.928;2022-09-16T04:00:47;15.40;99.90
34698;DHT22;61391;50.922;6.928;2022-09-16T04:03:15;15.50;99.90
34698;DHT22;61391;50.922;6.928;2022-09-16T04:05:41;15.50;99.90
34698;DHT22;61391;50.922;6.928;2022-09-16T04:08:06;15.60;99.90
34698;DHT22;61391;50.922;6.928;2022-09-16T04:10:32;15.50;99.90
34698;DHT22;61391;50.922;6.928;2022-09-16T04:13:02;15.50;99.90
34698;DHT22;61391;50.922;6.928;2022-09-16T04:15:27;15.50;99.90
34698;DHT22;61391;50.922;6.928;2022-09-16T04:17:53;15.60;99.90
34698;DHT22;61391;50.922;6.928;2022-09-16T04:20:20;15.40;99.90
34698;DHT22;61391;50.922;6.928;2022-09-16T04:22:46;15.60;99.90
34698;DHT22;61391;50.922;6.928;2022-09-16T04:25:11;15.60;99.90
34698;DHT22;61391;50.922;6.928;2022-09-16T04:27:49;15.50;99.90
34698;DHT22;61391;50.922;6.928;2022-09-16T04:30:15;15.40;99.90
34698;DHT22;61391;50.922;6.928;2022-09-16T04:32:40;15.00;99.90
34698;DHT22;61391;50.922;6.928;2022-09-16T04:35:06;15.20;99.90
34698;DHT22;61391;50.922;6.928;2022-09-16T04:37:32;15.20;99.90
34698;DHT22;61391;50.922;6.928;2022-09-16T04:39:58;15.20;99.90
34698;DHT22;61391;50.922;6.928;2022-09-16T04:42:33;15.20;99.90
34698;DHT22;61391;50.922;6.928;2022-09-16T04:44:58;15.10;99.90
34698;DHT22;61391;50.922;6.928;2022-09-16T04:47:24;15.10;99.90
34698;DHT22;61391;50.922;6.928;2022-09-16T04:49:50;15.10;99.90
34698;DHT22;61391;50.922;6.928;2022-09-16T04:52:16;15.20;99.90
34698;DHT22;61391;50.922;6.928;2022-09-16T04:54:50;15.20;99.90
34698;DHT22;61391;50.922;6.928;2022-09-16T04:57:15;15.10;99.90
34698;DHT22;61391;50.922;6.928;2022-09-16T04:59:41;15.20;99.90
34698;DHT22;61391;50.922;6.928;2022-09-16T05:02:06;15.20;99.90
34698;DHT22;61391;50.922;6.928;2022-09-16T05:04:32;15.20;99.90
34698;DHT22;61391;50.922;6.928;2022-09-16T05:06:57;15.20;99.90
34698;DHT22;61391;50.922;6.928;2022-09-16T05:09:23;15.20;99.90
34698;DHT22;61391;50.922;6.928;2022-09-16T05:11:49;15.30;99.90
34698;DHT22;61391;50.922;6.928;2022-09-16T05:14:17;15.20;99.90
34698;DHT22;61391;50.922;6.928;2022-09-16T05:16:43;15.20;99.90
34698;DHT22;61391;50.922;6.928;2022-09-16T05:19:12;15.10;99.90
34698;DHT22;61391;50.922;6.928;2022-09-16T05:21:38;14.80;99.90
34698;DHT22;61391;50.922;6.928;2022-09-16T05:24:07;14.60;99.90
34698;DHT22;61391;50.922;6.928;2022-09-16T05:26:34;14.70;99.90
34698;DHT22;61391;50.922;6.928;2022-09-16T05:29:02;14.70;99.90
34698;DHT22;61391;50.922;6.928;2022-09-16T05:31:31;14.70;99.90
34698;DHT22;61391;50.922;6.928;2022-09-16T05:34:01;14.70;99.90
34698;DHT22;61391;50.922;6.928;2022-09-16T05:36:28;14.80;99.90
34698;DHT22;61391;50.922;6.928;2022-09-16T05:38:54;14.90;99.90
34698;DHT22;61391;50.922;6.928;2022-09-16T05:41:20;15.00;99.90
34698;DHT22;61391;50.922;6.928;2022-09-16T05:43:46;15.10;99.90
34698;DHT22;61391;50.922;6.928;2022-09-16T05:46:17;15.10;99.90
34698;DHT22;61391;50.922;6.928;2022-09-16T05:48:43;15.00;99.90
34698;DHT22;61391;50.922;6.928;2022-09-16T05:51:08;15.10;99.90
34698;DHT22;61391;50.922;6.928;2022-09-16T05:53:36;15.10;99.90
34698;DHT22;61391;50.922;6.928;2022-09-16T05:56:13;15.10;99.90
34698;DHT22;61391;50.922;6.928;2022-09-16T05:58:39;15.20;99.90
34698;DHT22;61391;50.922;6.928;2022-09-16T06:01:08;15.10;99.90
34698;DHT22;61391;50.922;6.928;2022-09-16T06:03:35;15.10;99.90
34698;DHT22;61391;50.922;6.928;2022-09-16T06:06:02;15.20;99.90
34698;DHT22;61391;50.922;6.928;2022-09-16T06:08:30;15.10;99.90
34698;DHT22;61391;50.922;6.928;2022-09-16T06:10:56;15.10;99.90
34698;DHT22;61391;50.922;6.928;2022-09-16T06:13:21;15.20;99.90
34698;DHT22;61391;50.922;6.928;2022-09-16T06:15:51;15.10;99.90
34698;DHT22;61391;50.922;6.928;2022-09-16T06:18:19;15.00;99.90
34698;DHT22;61391;50.922;6.928;2022-09-16T06:20:45;15.10;99.90
34698;DHT22;61391;50.922;6.928;2022-09-16T06:23:11;15.30;99.90
34698;DHT22;61391;50.922;6.928;2022-09-16T06:25:37;15.40;99.90
34698;DHT22;61391;50.922;6.928;2022-09-16T06:28:05;15.50;99.90
34698;DHT22;61391;50.922;6.928;2022-09-16T06:30:31;15.50;99.90
34698;DHT22;61391;50.922;6.928;2022-09-16T06:32:57;15.60;99.90
34698;DHT22;61391;50.922;6.928;2022-09-16T06:35:22;15.60;99.90
34698;DHT22;61391;50.922;6.928;2022-09-16T06:37:48;15.50;99.90
34698;DHT22;61391;50.922;6.928;2022-09-16T06:40:14;15.60;99.90
34698;DHT22;61391;50.922;6.928;2022-09-16T06:42:39;15.80;99.90
34698;DHT22;61391;50.922;6.928;2022-09-16T06:45:05;16.00;99.90
34698;DHT22;61391;50.922;6.928;2022-09-16T06:47:31;16.20;99.90
34698;DHT22;61391;50.922;6.928;2022-09-16T06:49:58;16.20;99.90
34698;DHT22;61391;50.922;6.928;2022-09-16T06:52:52;16.40;99.90
34698;DHT22;61391;50.922;6.928;2022-09-16T06:55:17;16.40;99.90
34698;DHT22;61391;50.922;6.928;2022-09-16T06:57:43;16.20;99.90
34698;DHT22;61391;50.922;6.928;2022-09-16T07:00:09;16.00;99.90
34698;DHT22;61391;50.922;6.928;2022-09-16T07:02:35;16.00;99.90
34698;DHT22;61391;50.922;6.928;2022-09-16T07:05:00;16.10;99.90
34698;DHT22;61391;50.922;6.928;2022-09-16T07:07:29;16.10;99.90
34698;DHT22;61391;50.922;6.928;2022-09-16T07:12:49;17.00;99.90
34698;DHT22;61391;50.922;6.928;2022-09-16T07:15:15;17.30;99.90
34698;DHT22;61391;50.922;6.928;2022-09-16T07:17:41;17.30;99.90
34698;DHT22;61391;50.922;6.928;2022-09-16T07:20:07;17.10;99.90
34698;DHT22;61391;50.922;6.928;2022-09-16T07:22:32;17.00;99.90
34698;DHT22;61391;50.922;6.928;2022-09-16T07:24:58;17.10;99.90
34698;DHT22;61391;50.922;6.928;2022-09-16T07:27:26;17.00;99.90
34698;DHT22;61391;50.922;6.928;2022-09-16T07:29:52;16.90;99.90
34698;DHT22;61391;50.922;6.928;2022-09-16T07:32:18;17.20;99.90
34698;DHT22;61391;50.922;6.928;2022-09-16T07:34:44;17.70;99.90
34698;DHT22;61391;50.922;6.928;2022-09-16T07:37:10;17.90;99.90
34698;DHT22;61391;50.922;6.928;2022-09-16T07:39:37;18.00;99.90
34698;DHT22;61391;50.922;6.928;2022-09-16T07:42:02;17.90;99.90
34698;DHT22;61391;50.922;6.928;2022-09-16T07:44:28;17.80;99.90
34698;DHT22;61391;50.922;6.928;2022-09-16T07:46:54;17.80;99.90
34698;DHT22;61391;50.922;6.928;2022-09-16T07:49:25;17.80;99.90
34698;DHT22;61391;50.922;6.928;2022-09-16T07:51:51;17.70;99.90
34698;DHT22;61391;50.922;6.928;2022-09-16T07:54:17;17.70;99.90
34698;DHT22;61391;50.922;6.928;2022-09-16T07:56:45;18.40;99.90
34698;DHT22;61391;50.922;6.928;2022-09-16T07:59:14;19.30;99.90
34698;DHT22;61391;50.922;6.928;2022-09-16T08:01:40;20.30;99.90
34698;DHT22;61391;50.922;6.928;2022-09-16T08:04:05;20.30;99.90
34698;DHT22;61391;50.922;6.928;2022-09-16T08:06:31;20.30;99.90
34698;DHT22;61391;50.922;6.928;2022-09-16T08:08:59;19.80;99.90
34698;DHT22;61391;50.922;6.928;2022-09-16T08:11:28;19.30;99.90
34698;DHT22;61391;50.922;6.928;2022-09-16T08:13:58;19.10;99.90
34698;DHT22;61391;50.922;6.928;2022-09-16T08:16:24;18.60;99.90
34698;DHT22;61391;50.922;6.928;2022-09-16T08:18:52;18.70;99.90
34698;DHT22;61391;50.922;6.928;2022-09-16T08:21:21;18.30;99.90
34698;DHT22;61391;50.922;6.928;2022-09-16T08:23:47;18.10;99.90
34698;DHT22;61391;50.922;6.928;2022-09-16T08:26:14;18.00;99.90
34698;DHT22;61391;50.922;6.928;2022-09-16T08:28:43;18.00;99.90
34698;DHT22;61391;50.922;6.928;2022-09-16T08:31:14;18.10;99.90
34698;DHT22;61391;50.922;6.928;2022-09-16T08:33:41;18.30;99.90
34698;DHT22;61391;50.922;6.928;2022-09-16T08:36:20;18.20;99.90
34698;DHT22;61391;50.922;6.928;2022-09-16T08:38:47;18.20;99.90
34698;DHT22;61391;50.922;6.928;2022-09-16T08:47:06;18.40;99.90
34698;DHT22;61391;50.922;6.928;2022-09-16T08:52:04;18.60;99.90
34698;DHT22;61391;50.922;6.928;2022-09-16T08:55:19;18.90;99.90
34698;DHT22;61391;50.922;6.928;2022-09-16T08:57:27;19.20;99.90
34698;DHT22;61391;50.922;6.928;2022-09-16T09:00:00;19.30;99.90
34698;DHT22;61391;50.922;6.928;2022-09-16T09:03:06;19.70;99.90
34698;DHT22;61391;50.922;6.928;2022-09-16T09:05:51;20.00;99.90
34698;DHT22;61391;50.922;6.928;2022-09-16T09:11:41;20.10;99.90
34698;DHT22;61391;50.922;6.928;2022-09-16T09:22:52;22.60;99.90
34698;DHT22;61391;50.922;6.928;2022-09-16T09:25:43;24.10;99.90
34698;DHT22;61391;50.922;6.928;2022-09-16T09:43:14;25.40;98.30
34698;DHT22;61391;50.922;6.928;2022-09-16T09:48:43;23.70;99.90
34698;DHT22;61391;50.922;6.928;2022-09-16T09:51:34;22.30;99.90
34698;DHT22;61391;50.922;6.928;2022-09-16T09:54:27;21.60;99.90
34698;DHT22;61391;50.922;6.928;2022-09-16T09:57:43;21.00;99.90
34698;DHT22;61391;50.922;6.928;2022-09-16T10:00:15;20.50;99.90
34698;DHT22;61391;50.922;6.928;2022-09-16T10:03:10;20.40;99.90
34698;DHT22;61391;50.922;6.928;2022-09-16T10:05:36;20.40;99.90
34698;DHT22;61391;50.922;6.928;2022-09-16T10:08:08;20.40;99.90
34698;DHT22;61391;50.922;6.928;2022-09-16T10:10:45;20.60;99.90
34698;DHT22;61391;50.922;6.928;2022-09-16T10:13:12;21.60;99.90
34698;DHT22;61391;50.922;6.928;2022-09-16T10:15:40;22.50;99.90
34698;DHT22;61391;50.922;6.928;2022-09-16T10:18:24;22.30;99.90
34698;DHT22;61391;50.922;6.928;2022-09-16T10:21:04;21.90;99.90
34698;DHT22;61391;50.922;6.928;2022-09-16T10:23:30;22.70;99.90
34698;DHT22;61391;50.922;6.928;2022-09-16T10:28:38;24.10;99.90
34698;DHT22;61391;50.922;6.928;2022-09-16T10:31:06;24.20;99.90
34698;DHT22;61391;50.922;6.928;2022-09-16T10:33:36;24.30;97.70
34698;DHT22;61391;50.922;6.928;2022-09-16T10:36:10;24.40;96.30
34698;DHT22;61391;50.922;6.928;2022-09-16T10:38:45;24.20;96.40
34698;DHT22;61391;50.922;6.928;2022-09-16T10:41:31;24.10;97.90
34698;DHT22;61391;50.922;6.928;2022-09-16T10:44:00;23.60;98.20
34698;DHT22;61391;50.922;6.928;2022-09-16T10:46:27;23.80;99.00
34698;DHT22;61391;50.922;6.928;2022-09-16T10:48:58;24.40;95.80
34698;DHT22;61391;50.922;6.928;2022-09-16T10:51:28;24.10;96.20
34698;DHT22;61391;50.922;6.928;2022-09-16T10:54:01;24.40;95.50
34698;DHT22;61391;50.922;6.928;2022-09-16T10:56:31;24.60;94.90
34698;DHT22;61391;50.922;6.928;2022-09-16T10:59:16;24.80;94.20
34698;DHT22;61391;50.922;6.928;2022-09-16T11:02:14;24.20;94.80
34698;DHT22;61391;50.922;6.928;2022-09-16T11:04:53;23.90;95.20
34698;DHT22;61391;50.922;6.928;2022-09-16T11:10:33;23.00;99.90
34698;DHT22;61391;50.922;6.928;2022-09-16T11:13:37;22.40;99.90
34698;DHT22;61391;50.922;6.928;2022-09-16T11:16:20;22.10;99.90
34698;DHT22;61391;50.922;6.928;2022-09-16T11:21:29;20.90;99.90
34698;DHT22;61391;50.922;6.928;2022-09-16T11:30:23;20.50;99.90
34698;DHT22;61391;50.922;6.928;2022-09-16T11:33:21;20.40;99.90
34698;DHT22;61391;50.922;6.928;2022-09-16T11:42:03;20.00;99.90
34698;DHT22;61391;50.922;6.928;2022-09-16T11:44:45;20.10;99.90
34698;DHT22;61391;50.922;6.928;2022-09-16T11:47:41;20.10;99.90
34698;DHT22;61391;50.922;6.928;2022-09-16T11:50:37;20.10;99.90
34698;DHT22;61391;50.922;6.928;2022-09-16T11:55:57;20.30;99.90
34698;DHT22;61391;50.922;6.928;2022-09-16T11:58:52;20.40;99.90
34698;DHT22;61391;50.922;6.928;2022-09-16T12:01:43;20.40;99.90
34698;DHT22;61391;50.922;6.928;2022-09-16T12:04:28;20.40;99.90
34698;DHT22;61391;50.922;6.928;2022-09-16T12:10:16;20.60;99.90
34698;DHT22;61391;50.922;6.928;2022-09-16T12:12:48;20.60;99.90
34698;DHT22;61391;50.922;6.928;2022-09-16T12:15:26;20.60;99.90
34698;DHT22;61391;50.922;6.928;2022-09-16T12:18:02;20.40;99.90
34698;DHT22;61391;50.922;6.928;2022-09-16T12:20:37;20.20;99.90
34698;DHT22;61391;50.922;6.928;2022-09-16T12:23:21;20.20;99.90
34698;DHT22;61391;50.922;6.928;2022-09-16T12:26:15;20.00;99.90
34698;DHT22;61391;50.922;6.928;2022-09-16T12:29:07;20.00;99.90
34698;DHT22;61391;50.922;6.928;2022-09-16T12:31:56;20.20;99.90
34698;DHT22;61391;50.922;6.928;2022-09-16T12:34:49;20.60;99.90
34698;DHT22;61391;50.922;6.928;2022-09-16T12:37:50;20.20;99.90
34698;DHT22;61391;50.922;6.928;2022-09-16T12:40:24;19.70;99.90
34698;DHT22;61391;50.922;6.928;2022-09-16T12:49:29;17.30;99.90
34698;DHT22;61391;50.922;6.928;2022-09-16T12:52:31;16.90;99.90
34698;DHT22;61391;50.922;6.928;2022-09-16T13:01:44;16.10;99.90
34698;DHT22;61391;50.922;6.928;2022-09-16T13:04:23;16.10;99.90
34698;DHT22;61391;50.922;6.928;2022-09-16T13:06:56;16.10;99.90
34698;DHT22;61391;50.922;6.928;2022-09-16T13:09:39;16.20;99.90
34698;DHT22;61391;50.922;6.928;2022-09-16T13:12:06;16.20;99.90
34698;DHT22;61391;50.922;6.928;2022-09-16T13:14:49;16.30;99.90
34698;DHT22;61391;50.922;6.928;2022-09-16T13:17:29;16.30;99.90
34698;DHT22;61391;50.922;6.928;2022-09-16T13:20:16;16.40;99.90
34698;DHT22;61391;50.922;6.928;2022-09-16T13:23:09;16.70;99.90
34698;DHT22;61391;50.922;6.928;2022-09-16T13:26:03;16.70;99.90
34698;DHT22;61391;50.922;6.928;2022-09-16T13:38:52;16.70;99.90
34698;DHT22;61391;50.922;6.928;2022-09-16T13:41:45;16.70;99.90
34698;DHT22;61391;50.922;6.928;2022-09-16T13:47:13;16.70;99.90
34698;DHT22;61391;50.922;6.928;2022-09-16T13:50:09;16.80;99.90
34698;DHT22;61391;50.922;6.928;2022-09-16T13:52:35;16.70;99.90
34698;DHT22;61391;50.922;6.928;2022-09-16T13:55:15;16.70;99.90
34698;DHT22;61391;50.922;6.928;2022-09-16T14:00:30;16.50;99.90
34698;DHT22;61391;50.922;6.928;2022-09-16T14:03:18;16.60;99.90
34698;DHT22;61391;50.922;6.928;2022-09-16T14:06:07;16.80;99.90
34698;DHT22;61391;50.922;6.928;2022-09-16T14:08:57;16.90;99.90
34698;DHT22;61391;50.922;6.928;2022-09-16T14:14:48;16.90;99.90
34698;DHT22;61391;50.922;6.928;2022-09-16T14:17:26;16.80;99.90
34698;DHT22;61391;50.922;6.928;2022-09-16T14:19:57;16.80;99.90
34698;DHT22;61391;50.922;6.928;2022-09-16T14:22:23;16.90;99.90
34698;DHT22;61391;50.922;6.928;2022-09-16T14:24:53;16.80;99.90
34698;DHT22;61391;50.922;6.928;2022-09-16T14:32:23;16.80;99.90
34698;DHT22;61391;50.922;6.928;2022-09-16T14:34:52;16.90;99.90
34698;DHT22;61391;50.922;6.928;2022-09-16T14:37:20;17.00;99.90
34698;DHT22;61391;50.922;6.928;2022-09-16T14:39:46;17.00;99.90
34698;DHT22;61391;50.922;6.928;2022-09-16T14:42:18;17.10;99.90
34698;DHT22;61391;50.922;6.928;2022-09-16T14:45:13;17.30;99.90
34698;DHT22;61391;50.922;6.928;2022-09-16T14:47:42;17.20;99.90
34698;DHT22;61391;50.922;6.928;2022-09-16T14:50:27;17.00;99.90
34698;DHT22;61391;50.922;6.928;2022-09-16T14:53:02;16.60;99.90
34698;DHT22;61391;50.922;6.928;2022-09-16T14:55:30;16.60;99.90
34698;DHT22;61391;50.922;6.928;2022-09-16T14:57:59;16.80;99.90
34698;DHT22;61391;50.922;6.928;2022-09-16T15:01:03;16.90;99.90
34698;DHT22;61391;50.922;6.928;2022-09-16T15:03:42;17.20;99.90
34698;DHT22;61391;50.922;6.928;2022-09-16T15:06:14;17.40;99.90
34698;DHT22;61391;50.922;6.928;2022-09-16T15:08:55;17.40;99.90
34698;DHT22;61391;50.922;6.928;2022-09-16T15:11:26;17.20;99.90
34698;DHT22;61391;50.922;6.928;2022-09-16T15:13:52;17.20;99.90
34698;DHT22;61391;50.922;6.928;2022-09-16T15:16:21;17.20;99.90
34698;DHT22;61391;50.922;6.928;2022-09-16T15:18:56;17.20;99.90
34698;DHT22;61391;50.922;6.928;2022-09-16T15:21:27;17.20;99.90
34698;DHT22;61391;50.922;6.928;2022-09-16T15:23:59;17.30;99.90
34698;DHT22;61391;50.922;6.928;2022-09-16T15:26:30;17.10;99.90
34698;DHT22;61391;50.922;6.928;2022-09-16T15:31:43;16.90;99.90
34698;DHT22;61391;50.922;6.928;2022-09-16T15:34:21;17.00;99.90
34698;DHT22;61391;50.922;6.928;2022-09-16T15:37:31;16.90;99.90
34698;DHT22;61391;50.922;6.928;2022-09-16T15:40:31;16.70;99.90
34698;DHT22;61391;50.922;6.928;2022-09-16T15:43:17;16.70;99.90
34698;DHT22;61391;50.922;6.928;2022-09-16T15:46:13;16.60;99.90
34698;DHT22;61391;50.922;6.928;2022-09-16T15:49:15;16.40;99.90
34698;DHT22;61391;50.922;6.928;2022-09-16T15:51:50;16.30;99.90
34698;DHT22;61391;50.922;6.928;2022-09-16T15:54:45;16.30;99.90
34698;DHT22;61391;50.922;6.928;2022-09-16T16:00:02;16.20;99.90
34698;DHT22;61391;50.922;6.928;2022-09-16T16:02:44;16.20;99.90
34698;DHT22;61391;50.922;6.928;2022-09-16T16:05:24;16.20;99.90
34698;DHT22;61391;50.922;6.928;2022-09-16T16:07:52;16.00;99.90
34698;DHT22;61391;50.922;6.928;2022-09-16T16:10:23;15.90;99.90
34698;DHT22;61391;50.922;6.928;2022-09-16T16:12:51;15.90;99.90
34698;DHT22;61391;50.922;6.928;2022-09-16T16:15:55;15.80;99.90
34698;DHT22;61391;50.922;6.928;2022-09-16T16:18:20;15.80;99.90
34698;DHT22;61391;50.922;6.928;2022-09-16T16:20:48;15.80;99.90
34698;DHT22;61391;50.922;6.928;2022-09-16T16:23:13;15.70;99.90
34698;DHT22;61391;50.922;6.928;2022-09-16T16:25:40;15.50;99.90
34698;DHT22;61391;50.922;6.928;2022-09-16T16:28:07;15.20;99.90
34698;DHT22;61391;50.922;6.928;2022-09-16T16:30:39;15.00;99.90
34698;DHT22;61391;50.922;6.928;2022-09-16T16:36:34;14.80;99.90
34698;DHT22;61391;50.922;6.928;2022-09-16T16:39:02;14.80;99.90
34698;DHT22;61391;50.922;6.928;2022-09-16T16:41:28;14.80;99.90
34698;DHT22;61391;50.922;6.928;2022-09-16T16:43:54;14.80;99.90
34698;DHT22;61391;50.922;6.928;2022-09-16T16:46:19;14.90;99.90
34698;DHT22;61391;50.922;6.928;2022-09-16T16:49:08;15.00;99.90
34698;DHT22;61391;50.922;6.928;2022-09-16T16:51:34;14.80;99.90
34698;DHT22;61391;50.922;6.928;2022-09-16T16:54:00;14.90;99.90
34698;DHT22;61391;50.922;6.928;2022-09-16T16:56:25;15.00;99.90
34698;DHT22;61391;50.922;6.928;2022-09-16T16:58:53;14.90;99.90
34698;DHT22;61391;50.922;6.928;2022-09-16T17:01:19;14.90;99.90
34698;DHT22;61391;50.922;6.928;2022-09-16T17:03:46;14.70;99.90
34698;DHT22;61391;50.922;6.928;2022-09-16T17:06:14;14.70;99.90
34698;DHT22;61391;50.922;6.928;2022-09-16T17:08:40;14.80;99.90
34698;DHT22;61391;50.922;6.928;2022-09-16T17:11:16;14.50;99.90
34698;DHT22;61391;50.922;6.928;2022-09-16T17:13:44;14.50;99.90
34698;DHT22;61391;50.922;6.928;2022-09-16T17:16:11;14.60;99.90
34698;DHT22;61391;50.922;6.928;2022-09-16T17:18:39;14.60;99.90
34698;DHT22;61391;50.922;6.928;2022-09-16T17:23:33;14.40;99.90
34698;DHT22;61391;50.922;6.928;2022-09-16T17:25:59;14.40;99.90
34698;DHT22;61391;50.922;6.928;2022-09-16T17:28:25;14.40;99.90
34698;DHT22;61391;50.922;6.928;2022-09-16T17:30:53;14.50;99.90
34698;DHT22;61391;50.922;6.928;2022-09-16T17:33:19;14.50;99.90
34698;DHT22;61391;50.922;6.928;2022-09-16T17:35:44;14.50;99.90
34698;DHT22;61391;50.922;6.928;2022-09-16T17:38:10;14.40;99.90
34698;DHT22;61391;50.922;6.928;2022-09-16T17:40:36;14.40;99.90
34698;DHT22;61391;50.922;6.928;2022-09-16T17:43:01;14.40;99.90
34698;DHT22;61391;50.922;6.928;2022-09-16T17:45:27;14.30;99.90
34698;DHT22;61391;50.922;6.928;2022-09-16T17:47:54;14.30;99.90
34698;DHT22;61391;50.922;6.928;2022-09-16T17:50:22;14.30;99.90
34698;DHT22;61391;50.922;6.928;2022-09-16T17:52:47;14.30;99.90
34698;DHT22;61391;50.922;6.928;2022-09-16T17:55:13;14.30;99.90
34698;DHT22;61391;50.922;6.928;2022-09-16T17:57:38;14.30;99.90
34698;DHT22;61391;50.922;6.928;2022-09-16T18:00:04;14.30;99.90
34698;DHT22;61391;50.922;6.928;2022-09-16T18:02:30;14.20;99.90
34698;DHT22;61391;50.922;6.928;2022-09-16T18:04:55;14.10;99.90
34698;DHT22;61391;50.922;6.928;2022-09-16T18:07:21;14.00;99.90
34698;DHT22;61391;50.922;6.928;2022-09-16T18:09:47;14.10;99.90
34698;DHT22;61391;50.922;6.928;2022-09-16T18:12:13;14.00;99.90
34698;DHT22;61391;50.922;6.928;2022-09-16T18:14:38;14.00;99.90
34698;DHT22;61391;50.922;6.928;2022-09-16T18:17:04;14.00;99.90
34698;DHT22;61391;50.922;6.928;2022-09-16T18:19:30;13.90;99.90
34698;DHT22;61391;50.922;6.928;2022-09-16T18:21:55;13.90;99.90
34698;DHT22;61391;50.922;6.928;2022-09-16T18:24:21;13.90;99.90
34698;DHT22;61391;50.922;6.928;2022-09-16T18:26:46;13.90;99.90
34698;DHT22;61391;50.922;6.928;2022-09-16T18:29:12;13.80;99.90
34698;DHT22;61391;50.922;6.928;2022-09-16T18:31:40;13.80;99.90
34698;DHT22;61391;50.922;6.928;2022-09-16T18:34:06;13.70;99.90
34698;DHT22;61391;50.922;6.928;2022-09-16T18:36:32;13.60;99.90
34698;DHT22;61391;50.922;6.928;2022-09-16T18:38:59;13.60;99.90
34698;DHT22;61391;50.922;6.928;2022-09-16T18:41:27;13.60;99.90
34698;DHT22;61391;50.922;6.928;2022-09-16T18:43:55;13.60;99.90
34698;DHT22;61391;50.922;6.928;2022-09-16T18:46:26;13.50;99.90